Time;durP1;ratioP1;P1;durP2;ratioP2;P2;SDS_P1;SDS_P2;PMS_P1;PMS_P2;Temp;Humidity;BMP_temperature;BMP_pressure;BME280_temperature;BME280_humidity;BME280_pressure;Samples;Min_cycle;Max_cycle;Signal;HPM_P1;HPM_P2
2023/06/25 00:02:12;;;;;;;0.10;0.10;;;17.30;68.30;;;;;;5053998;28;20241;-54
2023/06/25 00:04:42;;;;;;;0.10;0.10;;;17.40;68.30;;;;;;5053832;28;20196;-56
2023/06/25 00:07:13;;;;;;;0.10;0.10;;;17.30;68.30;;;;;;5053558;28;20245;-55
2023/06/25 00:09:55;;;;;;;0.03;0.03;;;17.40;68.40;;;;;;5053571;28;20286;-54
2023/06/25 00:12:26;;;;;;;0.13;0.13;;;17.40;68.60;;;;;;5053789;28;20707;-56
2023/06/25 00:14:59;;;;;;;0.10;0.10;;;17.40;68.80;;;;;;5052897;28;20253;-54
2023/06/25 00:17:30;;;;;;;0.10;0.10;;;17.40;69.10;;;;;;5053016;28;20195;-53
2023/06/25 00:20:01;;;;;;;0.10;0.10;;;17.40;69.20;;;;;;5052897;28;20211;-56
2023/06/25 00:22:31;;;;;;;0.10;0.10;;;17.40;69.00;;;;;;5053911;28;20192;-55
2023/06/25 00:25:02;;;;;;;0.10;0.10;;;17.40;68.90;;;;;;5057697;28;20257;-54
2023/06/25 00:27:32;;;;;;;0.10;0.10;;;17.40;68.80;;;;;;5053510;28;20334;-51
2023/06/25 00:30:05;;;;;;;0.10;0.10;;;17.40;68.70;;;;;;5053208;28;20215;-53
2023/06/25 00:32:35;;;;;;;0.10;0.10;;;17.50;68.60;;;;;;5051898;28;20220;-51
2023/06/25 00:35:06;;;;;;;0.10;0.10;;;17.50;68.60;;;;;;5053208;28;20202;-55
2023/06/25 00:37:37;;;;;;;0.10;0.10;;;17.50;68.50;;;;;;5053342;28;20196;-55
2023/06/25 00:40:09;;;;;;;0.13;0.13;;;17.50;68.40;;;;;;5052468;28;20208;-55
2023/06/25 00:42:44;;;;;;;0.10;0.10;;;17.50;68.30;;;;;;5055754;28;20211;-55
2023/06/25 00:45:17;;;;;;;0.10;0.10;;;17.50;68.30;;;;;;5057186;28;20191;-56
2023/06/25 00:47:47;;;;;;;0.10;0.10;;;17.50;68.20;;;;;;5061742;28;20207;-54
2023/06/25 00:50:21;;;;;;;0.10;0.10;;;17.50;68.10;;;;;;5056427;28;20269;-54
2023/06/25 00:52:52;;;;;;;0.10;0.10;;;17.50;68.10;;;;;;5055902;28;20234;-53
2023/06/25 00:55:23;;;;;;;0.10;0.10;;;17.50;68.10;;;;;;5055704;28;20242;-53
2023/06/25 00:57:55;;;;;;;0.00;0.00;;;17.50;68.00;;;;;;5052890;28;20241;-53
2023/06/25 01:00:28;;;;;;;0.05;0.05;;;17.50;68.00;;;;;;5051389;28;20246;-55
2023/06/25 01:03:04;;;;;;;0.10;0.10;;;17.50;68.00;;;;;;5052671;28;20192;-51
2023/06/25 01:05:41;;;;;;;0.00;0.00;;;17.60;68.20;;;;;;5051679;28;20227;-53
2023/06/25 01:08:13;;;;;;;0.10;0.10;;;17.50;68.00;;;;;;5053129;28;20221;-54
2023/06/25 01:10:45;;;;;;;0.10;0.10;;;17.50;68.00;;;;;;5052059;28;20692;-52
2023/06/25 01:13:15;;;;;;;0.10;0.10;;;17.50;67.90;;;;;;5052351;28;20223;-50
2023/06/25 01:15:48;;;;;;;0.10;0.10;;;17.50;67.90;;;;;;5052618;28;20192;-54
2023/06/25 01:18:19;;;;;;;0.00;0.00;;;17.50;67.90;;;;;;5053023;28;20226;-54
2023/06/25 01:20:51;;;;;;;0.10;0.10;;;17.60;68.00;;;;;;5051691;28;20402;-55
2023/06/25 01:23:23;;;;;;;0.00;0.00;;;17.60;68.00;;;;;;5059555;28;20207;-53
2023/06/25 01:25:54;;;;;;;0.00;0.00;;;17.60;67.90;;;;;;5053096;28;20196;-55
2023/06/25 01:28:25;;;;;;;0.10;0.10;;;17.50;67.80;;;;;;5052073;28;20261;-55
2023/06/25 01:30:56;;;;;;;0.10;0.10;;;17.50;67.70;;;;;;5052817;28;20686;-54
2023/06/25 01:33:27;;;;;;;0.10;0.10;;;17.50;67.80;;;;;;5052326;28;20223;-51
2023/06/25 01:35:58;;;;;;;0.10;0.10;;;17.60;67.90;;;;;;5052144;28;20188;-54
2023/06/25 01:38:30;;;;;;;0.00;0.00;;;17.60;67.90;;;;;;5052191;28;20253;-55
2023/06/25 01:41:01;;;;;;;0.08;0.08;;;17.60;67.90;;;;;;5052500;28;20203;-52
2023/06/25 01:43:32;;;;;;;0.10;0.10;;;17.60;67.90;;;;;;5051775;28;20192;-52
2023/06/25 01:46:02;;;;;;;0.10;0.10;;;17.60;67.90;;;;;;5051556;28;20207;-55
2023/06/25 01:48:34;;;;;;;0.10;0.10;;;17.60;68.00;;;;;;5052026;28;20547;-61
2023/06/25 01:51:05;;;;;;;0.00;0.00;;;17.60;68.00;;;;;;5051248;28;20195;-55
2023/06/25 01:53:37;;;;;;;0.03;0.03;;;17.60;68.00;;;;;;5060222;28;20303;-50
2023/06/25 01:56:08;;;;;;;0.00;0.00;;;17.60;68.00;;;;;;5051717;28;20611;-53
2023/06/25 01:58:38;;;;;;;0.10;0.10;;;17.60;67.90;;;;;;5051702;28;20203;-52
2023/06/25 02:01:09;;;;;;;0.08;0.08;;;17.60;67.90;;;;;;5051904;28;20768;-55
2023/06/25 02:03:39;;;;;;;0.05;0.05;;;17.60;67.90;;;;;;5069838;28;20199;-55
2023/06/25 02:06:10;;;;;;;0.10;0.10;;;17.60;67.80;;;;;;5051684;28;20256;-56
2023/06/25 02:08:42;;;;;;;0.10;0.10;;;17.60;67.90;;;;;;5051370;28;20191;-54
2023/06/25 02:11:13;;;;;;;0.03;0.03;;;17.60;67.90;;;;;;5051070;28;20188;-54
2023/06/25 02:13:44;;;;;;;0.10;0.10;;;17.60;68.00;;;;;;5051406;28;20349;-55
2023/06/25 02:16:14;;;;;;;0.00;0.00;;;17.70;68.00;;;;;;5051045;28;20281;-55
2023/06/25 02:18:45;;;;;;;0.00;0.00;;;17.70;68.10;;;;;;5050955;28;20763;-55
2023/06/25 02:21:15;;;;;;;0.10;0.10;;;17.70;68.10;;;;;;5050848;28;20191;-53
2023/06/25 02:23:48;;;;;;;0.10;0.10;;;17.70;68.00;;;;;;5061608;28;20205;-55
2023/06/25 02:26:18;;;;;;;0.10;0.10;;;17.70;68.00;;;;;;5050590;28;20195;-56
2023/06/25 02:28:49;;;;;;;0.10;0.10;;;17.70;68.00;;;;;;5031157;28;20203;-55
2023/06/25 02:31:20;;;;;;;0.10;0.10;;;17.70;68.00;;;;;;5058381;28;20194;-54
2023/06/25 02:33:50;;;;;;;0.10;0.10;;;17.70;67.90;;;;;;5070969;28;20222;-56
2023/06/25 02:36:21;;;;;;;0.10;0.10;;;17.70;67.90;;;;;;5051284;28;20195;-55
2023/06/25 02:38:53;;;;;;;0.10;0.10;;;17.70;67.90;;;;;;5050828;28;20225;-53
2023/06/25 02:41:24;;;;;;;0.10;0.10;;;17.70;67.90;;;;;;5050335;28;20203;-53
2023/06/25 02:43:54;;;;;;;0.10;0.10;;;17.70;67.80;;;;;;5050552;28;20679;-55
2023/06/25 02:46:25;;;;;;;0.10;0.10;;;17.70;67.80;;;;;;5050283;28;20725;-54
2023/06/25 02:48:56;;;;;;;0.05;0.05;;;17.70;67.80;;;;;;5051028;28;20203;-53
2023/06/25 02:51:26;;;;;;;0.08;0.08;;;17.70;67.80;;;;;;5051107;28;20725;-54
2023/06/25 02:53:59;;;;;;;0.00;0.00;;;17.70;67.80;;;;;;5062721;28;20874;-54
2023/06/25 02:56:29;;;;;;;0.10;0.10;;;17.70;67.80;;;;;;5050213;28;20244;-54
2023/06/25 02:59:00;;;;;;;0.10;0.10;;;17.80;67.80;;;;;;5050809;28;20559;-56
2023/06/25 03:01:30;;;;;;;0.10;0.10;;;17.80;67.90;;;;;;5050423;28;20199;-54
2023/06/25 03:04:01;;;;;;;0.00;0.00;;;17.80;67.90;;;;;;5050634;28;20207;-55
2023/06/25 03:06:31;;;;;;;0.10;0.10;;;17.80;67.90;;;;;;5050251;28;20856;-52
2023/06/25 03:09:04;;;;;;;0.10;0.10;;;17.80;67.90;;;;;;5051085;28;20261;-51
2023/06/25 03:11:34;;;;;;;0.10;0.10;;;17.80;67.90;;;;;;5050888;28;20238;-54
2023/06/25 03:14:05;;;;;;;0.10;0.10;;;17.80;67.90;;;;;;5050438;28;20626;-53
2023/06/25 03:16:36;;;;;;;0.10;0.10;;;17.80;67.90;;;;;;5050236;28;20192;-53
2023/06/25 03:19:07;;;;;;;0.20;0.20;;;17.80;67.80;;;;;;5050553;28;20265;-55
2023/06/25 03:21:38;;;;;;;0.10;0.10;;;17.80;68.00;;;;;;5050183;28;20553;-52
2023/06/25 03:24:10;;;;;;;0.10;0.10;;;17.80;68.10;;;;;;5048898;28;20264;-55
2023/06/25 03:26:41;;;;;;;0.00;0.00;;;17.90;68.20;;;;;;5049750;28;20659;-51
2023/06/25 03:29:11;;;;;;;0.00;0.00;;;17.90;68.10;;;;;;5050733;28;20277;-55
2023/06/25 03:31:42;;;;;;;0.10;0.10;;;17.90;68.10;;;;;;5050598;28;20438;-55
2023/06/25 03:34:12;;;;;;;0.10;0.10;;;17.90;68.10;;;;;;5050367;28;20227;-56
2023/06/25 03:36:43;;;;;;;0.10;0.10;;;17.90;68.10;;;;;;5048902;28;20273;-54
2023/06/25 03:39:15;;;;;;;0.00;0.00;;;17.90;68.10;;;;;;5050035;28;20269;-54
2023/06/25 03:41:46;;;;;;;0.10;0.10;;;17.90;68.10;;;;;;5050366;28;20265;-55
2023/06/25 03:44:16;;;;;;;0.10;0.10;;;17.90;68.10;;;;;;5050683;28;20207;-54
2023/06/25 03:46:47;;;;;;;0.10;0.10;;;17.90;68.00;;;;;;5050161;28;20659;-56
2023/06/25 03:49:17;;;;;;;0.00;0.00;;;17.90;68.00;;;;;;5050268;28;20223;-54
2023/06/25 03:51:48;;;;;;;0.10;0.10;;;17.90;68.00;;;;;;5062177;28;20256;-56
2023/06/25 03:54:20;;;;;;;0.10;0.10;;;17.90;67.90;;;;;;5058028;28;20231;-55
2023/06/25 03:56:51;;;;;;;0.10;0.10;;;17.90;67.90;;;;;;5050565;28;20712;-53
2023/06/25 03:59:22;;;;;;;0.10;0.10;;;17.90;67.90;;;;;;5049724;28;20691;-55
2023/06/25 04:01:52;;;;;;;0.10;0.10;;;18.00;67.90;;;;;;5049800;28;20285;-56
2023/06/25 04:04:23;;;;;;;0.10;0.10;;;17.90;67.80;;;;;;5049547;28;20191;-56
2023/06/25 04:06:53;;;;;;;0.10;0.10;;;18.00;67.80;;;;;;5049454;28;20245;-56
2023/06/25 04:09:26;;;;;;;0.10;0.10;;;18.00;67.80;;;;;;5053591;28;20219;-56
2023/06/25 04:11:56;;;;;;;0.03;0.03;;;17.90;67.80;;;;;;5053555;28;20195;-56
2023/06/25 04:14:27;;;;;;;0.10;0.10;;;18.00;67.80;;;;;;5053295;28;20281;-54
2023/06/25 04:16:58;;;;;;;0.10;0.10;;;18.00;68.60;;;;;;5055325;28;20280;-55
2023/06/25 04:19:29;;;;;;;0.10;0.10;;;17.90;67.70;;;;;;5073548;28;20219;-54
2023/06/25 04:21:59;;;;;;;0.10;0.10;;;17.90;67.70;;;;;;5054576;28;20658;-54
2023/06/25 04:24:32;;;;;;;0.10;0.10;;;18.00;67.80;;;;;;5070185;28;20203;-54
2023/06/25 04:27:04;;;;;;;0.10;0.10;;;18.00;67.70;;;;;;5054463;28;20200;-52
2023/06/25 04:29:34;;;;;;;0.10;0.10;;;18.00;67.70;;;;;;5053208;28;20258;-55
2023/06/25 04:32:05;;;;;;;0.10;0.10;;;18.00;67.70;;;;;;5055313;28;20199;-55
2023/06/25 04:34:35;;;;;;;0.00;0.00;;;18.00;68.40;;;;;;5072764;28;20234;-54
2023/06/25 04:37:06;;;;;;;0.20;0.20;;;17.90;67.60;;;;;;5052858;28;20199;-55
2023/06/25 04:39:40;;;;;;;0.00;0.00;;;17.90;67.60;;;;;;5053200;28;20265;-56
2023/06/25 04:42:11;;;;;;;0.10;0.10;;;17.90;67.60;;;;;;5052713;28;20195;-54
2023/06/25 04:44:42;;;;;;;0.10;0.10;;;18.00;67.60;;;;;;5052944;28;20246;-55
2023/06/25 04:47:12;;;;;;;0.10;0.10;;;18.00;67.60;;;;;;5052813;28;20195;-56
2023/06/25 04:49:43;;;;;;;0.10;0.10;;;17.90;67.60;;;;;;5052867;28;20646;-55
2023/06/25 04:52:18;;;;;;;0.10;0.10;;;18.00;67.60;;;;;;5052517;28;20242;-53
2023/06/25 04:54:50;;;;;;;0.10;0.10;;;17.90;67.50;;;;;;5071151;28;20490;-54
2023/06/25 04:57:21;;;;;;;0.10;0.10;;;18.00;67.50;;;;;;5052276;28;20245;-55
2023/06/25 04:59:51;;;;;;;0.05;0.05;;;17.90;67.50;;;;;;5052867;28;20269;-53
2023/06/25 05:02:22;;;;;;;0.10;0.10;;;17.90;67.50;;;;;;5051905;28;20659;-56
2023/06/25 05:04:53;;;;;;;0.08;0.08;;;17.90;67.50;;;;;;5052158;28;20207;-55
2023/06/25 05:07:23;;;;;;;0.10;0.10;;;17.90;67.50;;;;;;5051665;28;20253;-55
2023/06/25 05:09:56;;;;;;;0.10;0.10;;;18.00;67.60;;;;;;5051674;28;20269;-55
2023/06/25 05:12:26;;;;;;;0.10;0.10;;;17.90;67.50;;;;;;5052502;28;20246;-55
2023/06/25 05:14:57;;;;;;;0.10;0.10;;;18.00;67.60;;;;;;5052329;28;20222;-56
2023/06/25 05:17:27;;;;;;;0.00;0.00;;;18.00;67.50;;;;;;5051878;28;20195;-53
2023/06/25 05:19:58;;;;;;;0.10;0.10;;;17.90;67.50;;;;;;5050616;28;20269;-55
2023/06/25 05:22:28;;;;;;;0.00;0.00;;;17.90;67.50;;;;;;5051452;28;20188;-55
2023/06/25 05:25:01;;;;;;;0.10;0.10;;;17.90;67.40;;;;;;5052844;28;20254;-54
2023/06/25 05:27:31;;;;;;;0.10;0.10;;;17.90;67.50;;;;;;5051934;28;20704;-53
2023/06/25 05:30:02;;;;;;;0.10;0.10;;;17.90;67.50;;;;;;5051611;28;20277;-55
2023/06/25 05:32:33;;;;;;;0.10;0.10;;;17.90;67.30;;;;;;5052469;28;20204;-56
2023/06/25 05:35:03;;;;;;;0.10;0.10;;;17.90;67.30;;;;;;5050974;28;20624;-53
2023/06/25 05:37:34;;;;;;;0.10;0.10;;;17.90;67.30;;;;;;5051825;28;20195;-54
2023/06/25 05:40:07;;;;;;;0.00;0.00;;;17.90;67.30;;;;;;5051398;28;20281;-55
2023/06/25 05:42:37;;;;;;;0.10;0.10;;;17.90;67.20;;;;;;5051416;28;20199;-54
2023/06/25 05:45:09;;;;;;;0.10;0.10;;;17.90;67.20;;;;;;5051540;28;20195;-54
2023/06/25 05:47:40;;;;;;;0.10;0.10;;;17.90;67.20;;;;;;5051276;28;20316;-51
2023/06/25 05:50:11;;;;;;;0.10;0.10;;;17.90;67.20;;;;;;5052223;28;20219;-55
2023/06/25 05:52:44;;;;;;;0.00;0.00;;;17.90;67.30;;;;;;5053205;28;20643;-52
2023/06/25 05:55:17;;;;;;;0.00;0.00;;;17.90;67.20;;;;;;5060887;28;20218;-55
2023/06/25 05:57:47;;;;;;;0.10;0.10;;;17.90;67.20;;;;;;5051656;28;20199;-55
2023/06/25 06:00:21;;;;;;;0.10;0.10;;;17.90;67.20;;;;;;5052096;28;20215;-52
2023/06/25 06:02:51;;;;;;;0.00;0.00;;;17.90;67.20;;;;;;5032139;28;20722;-52
2023/06/25 06:05:22;;;;;;;0.10;0.10;;;17.80;67.10;;;;;;5031486;28;20196;-54
2023/06/25 06:07:52;;;;;;;0.10;0.10;;;17.80;67.10;;;;;;5031851;28;20718;-54
2023/06/25 06:10:25;;;;;;;0.10;0.10;;;17.80;67.10;;;;;;5037619;28;20215;-55
2023/06/25 06:12:55;;;;;;;0.10;0.10;;;17.80;67.00;;;;;;5051112;28;20241;-55
2023/06/25 06:15:26;;;;;;;0.15;0.15;;;17.80;67.00;;;;;;5051686;28;20223;-55
2023/06/25 06:17:56;;;;;;;0.03;0.03;;;17.80;66.90;;;;;;5050928;28;20196;-53
2023/06/25 06:20:27;;;;;;;0.00;0.00;;;17.80;66.90;;;;;;5051516;28;20240;-54
2023/06/25 06:22:58;;;;;;;0.10;0.10;;;17.80;66.90;;;;;;5055363;28;20195;-56
2023/06/25 06:25:31;;;;;;;0.08;0.08;;;17.80;67.00;;;;;;5071144;28;20197;-54
2023/06/25 06:28:02;;;;;;;0.10;0.10;;;17.80;67.00;;;;;;5051044;28;20538;-54
2023/06/25 06:30:32;;;;;;;0.17;0.17;;;17.80;67.00;;;;;;5049821;28;20215;-55
2023/06/25 06:33:03;;;;;;;0.10;0.10;;;17.80;67.00;;;;;;5043431;28;20238;-54
2023/06/25 06:35:33;;;;;;;0.00;0.00;;;17.80;67.00;;;;;;5051228;28;20486;-55
2023/06/25 06:38:04;;;;;;;0.10;0.10;;;17.80;67.00;;;;;;5050675;28;20249;-54
2023/06/25 06:40:36;;;;;;;0.10;0.10;;;17.70;66.90;;;;;;5051435;28;20644;-55
2023/06/25 06:43:07;;;;;;;0.00;0.00;;;17.80;67.00;;;;;;5033627;28;20261;-56
2023/06/25 06:45:37;;;;;;;0.10;0.10;;;17.70;66.90;;;;;;5051402;28;20207;-55
2023/06/25 06:48:08;;;;;;;0.00;0.00;;;17.70;66.90;;;;;;5050859;28;20188;-56
2023/06/25 06:50:39;;;;;;;0.10;0.10;;;17.70;66.90;;;;;;5051899;28;20219;-55
2023/06/25 06:53:09;;;;;;;0.10;0.10;;;17.70;66.80;;;;;;5056842;28;20203;-54
2023/06/25 06:55:42;;;;;;;0.00;0.00;;;17.70;66.80;;;;;;5071580;28;20272;-56
2023/06/25 06:58:12;;;;;;;0.08;0.08;;;17.70;66.80;;;;;;5071615;28;20199;-56
2023/06/25 07:00:43;;;;;;;0.10;0.10;;;17.70;66.80;;;;;;5071423;28;20268;-54
2023/06/25 07:03:13;;;;;;;0.05;0.05;;;17.70;66.90;;;;;;5070794;28;20199;-55
2023/06/25 07:05:44;;;;;;;0.00;0.00;;;17.70;66.90;;;;;;5071985;28;20194;-54
2023/06/25 07:08:15;;;;;;;0.10;0.10;;;17.70;66.80;;;;;;5071384;28;20589;-56
2023/06/25 07:10:47;;;;;;;0.10;0.10;;;17.70;66.90;;;;;;5070803;28;20628;-55
2023/06/25 07:13:18;;;;;;;0.03;0.03;;;17.70;66.90;;;;;;5070938;28;20260;-56
2023/06/25 07:15:48;;;;;;;0.10;0.10;;;17.60;66.80;;;;;;5071599;28;20223;-56
2023/06/25 07:18:19;;;;;;;0.00;0.00;;;17.60;66.70;;;;;;5070975;28;20241;-54
2023/06/25 07:20:49;;;;;;;0.05;0.05;;;17.60;66.80;;;;;;5071011;28;20288;-56
2023/06/25 07:23:20;;;;;;;0.10;0.10;;;17.60;66.80;;;;;;5070926;28;20537;-56
2023/06/25 07:25:52;;;;;;;0.08;0.08;;;17.60;66.80;;;;;;5071415;28;20191;-55
2023/06/25 07:28:23;;;;;;;0.08;0.08;;;17.60;66.80;;;;;;5069254;28;20651;-55
2023/06/25 07:30:54;;;;;;;0.10;0.10;;;17.60;66.80;;;;;;5048873;28;20281;-54
2023/06/25 07:33:24;;;;;;;0.05;0.05;;;17.60;66.80;;;;;;5050752;28;20691;-54
2023/06/25 07:35:55;;;;;;;0.10;0.10;;;17.50;66.70;;;;;;5051318;28;20223;-53
2023/06/25 07:38:25;;;;;;;0.10;0.10;;;17.60;66.80;;;;;;5051410;28;20270;-51
2023/06/25 07:40:58;;;;;;;0.00;0.00;;;17.50;66.70;;;;;;5051597;28;20250;-56
2023/06/25 07:43:28;;;;;;;0.10;0.10;;;17.50;66.70;;;;;;5053474;28;20192;-51
2023/06/25 07:45:59;;;;;;;0.08;0.08;;;17.50;66.70;;;;;;5054393;28;20667;-55
2023/06/25 07:48:29;;;;;;;0.10;0.10;;;17.60;66.70;;;;;;5054283;28;20273;-55
2023/06/25 07:51:00;;;;;;;0.10;0.10;;;17.50;66.70;;;;;;5054667;28;20285;-56
2023/06/25 07:53:30;;;;;;;0.13;0.13;;;17.50;66.70;;;;;;5062642;28;20206;-56
2023/06/25 07:56:03;;;;;;;0.08;0.08;;;17.50;66.60;;;;;;5058645;28;20308;-51
2023/06/25 07:58:34;;;;;;;0.10;0.10;;;17.50;66.70;;;;;;5054740;28;20196;-55
2023/06/25 08:01:04;;;;;;;0.00;0.00;;;17.50;66.70;;;;;;5054744;28;20219;-56
2023/06/25 08:03:35;;;;;;;0.00;0.00;;;17.40;66.70;;;;;;5054361;28;20241;-55
2023/06/25 08:06:06;;;;;;;0.00;0.00;;;17.50;66.70;;;;;;5054525;28;20199;-54
2023/06/25 08:08:36;;;;;;;0.00;0.00;;;17.40;66.70;;;;;;5054607;28;20253;-55
2023/06/25 08:11:08;;;;;;;0.10;0.10;;;17.50;66.70;;;;;;5054102;28;20275;-53
2023/06/25 08:13:39;;;;;;;0.10;0.10;;;17.40;66.70;;;;;;5054371;28;20716;-54
2023/06/25 08:16:10;;;;;;;0.08;0.08;;;17.40;66.70;;;;;;5054031;28;20231;-55
2023/06/25 08:18:40;;;;;;;0.10;0.10;;;17.40;66.80;;;;;;5054287;28;20616;-55
2023/06/25 08:21:12;;;;;;;0.10;0.10;;;17.40;66.80;;;;;;5053452;28;20212;-55
2023/06/25 08:23:42;;;;;;;0.10;0.10;;;17.40;66.70;;;;;;5058201;28;20192;-53
2023/06/25 08:26:15;;;;;;;0.10;0.10;;;17.40;66.80;;;;;;5053982;28;20635;-51
2023/06/25 08:28:46;;;;;;;0.00;0.00;;;17.40;66.70;;;;;;5053946;28;20210;-52
2023/06/25 08:31:16;;;;;;;0.08;0.08;;;17.40;66.70;;;;;;5053213;28;20269;-55
2023/06/25 08:33:47;;;;;;;0.10;0.10;;;17.40;66.70;;;;;;5053901;28;20191;-51
2023/06/25 08:36:18;;;;;;;0.10;0.10;;;17.40;66.70;;;;;;5053651;28;20231;-54
2023/06/25 08:38:48;;;;;;;0.10;0.10;;;17.40;66.70;;;;;;5053909;28;20249;-54
2023/06/25 08:41:21;;;;;;;0.10;0.10;;;17.40;66.70;;;;;;5053434;28;20203;-52
2023/06/25 08:43:51;;;;;;;0.10;0.10;;;17.30;66.60;;;;;;5053849;28;20199;-50
2023/06/25 08:46:22;;;;;;;0.10;0.10;;;17.30;66.60;;;;;;5052698;28;20208;-54
2023/06/25 08:49:00;;;;;;;0.20;0.20;;;17.30;66.60;;;;;;5053457;28;20208;-54
2023/06/25 08:51:31;;;;;;;0.10;0.10;;;17.30;66.60;;;;;;5053512;28;20282;-50
2023/06/25 08:54:01;;;;;;;0.10;0.10;;;17.30;66.60;;;;;;5065039;28;20276;-54
2023/06/25 08:56:35;;;;;;;0.10;0.10;;;17.30;66.60;;;;;;5073527;28;20226;-53
2023/06/25 08:59:05;;;;;;;0.10;0.10;;;17.30;66.60;;;;;;5073414;28;20206;-55
2023/06/25 09:01:36;;;;;;;0.00;0.00;;;17.30;66.60;;;;;;5072809;28;20772;-53
2023/06/25 09:04:07;;;;;;;0.00;0.00;;;17.30;66.60;;;;;;5073382;28;20194;-52
2023/06/25 09:06:42;;;;;;;0.10;0.10;;;17.30;66.60;;;;;;5073053;28;20195;-55
2023/06/25 09:09:13;;;;;;;0.10;0.10;;;17.30;66.60;;;;;;5073132;28;20247;-53
2023/06/25 09:11:45;;;;;;;0.10;0.10;;;17.30;66.60;;;;;;5073256;28;20199;-53
2023/06/25 09:14:16;;;;;;;0.10;0.10;;;17.30;66.60;;;;;;5073222;28;20195;-55
2023/06/25 09:16:50;;;;;;;0.00;0.00;;;17.30;66.60;;;;;;5067081;28;20661;-53
2023/06/25 09:19:22;;;;;;;0.10;0.10;;;17.30;66.60;;;;;;5052872;28;20690;-55
2023/06/25 09:21:53;;;;;;;0.10;0.10;;;17.20;66.60;;;;;;5052837;28;20184;-52
2023/06/25 09:24:24;;;;;;;0.10;0.10;;;17.30;66.70;;;;;;5053738;28;20268;-54
2023/06/25 09:26:57;;;;;;;0.10;0.10;;;17.30;66.70;;;;;;5055996;28;20204;-55
2023/06/25 09:29:27;;;;;;;0.10;0.10;;;17.20;66.60;;;;;;5052194;28;20215;-53
2023/06/25 09:31:58;;;;;;;0.10;0.10;;;17.30;66.70;;;;;;5051980;28;20252;-51
2023/06/25 09:34:29;;;;;;;0.10;0.10;;;17.30;66.70;;;;;;5051792;28;20191;-51
2023/06/25 09:36:59;;;;;;;0.10;0.10;;;17.30;66.70;;;;;;5049310;28;20683;-51
2023/06/25 09:39:30;;;;;;;0.08;0.08;;;17.20;66.70;;;;;;5052131;28;20270;-53
2023/06/25 09:42:03;;;;;;;0.10;0.10;;;17.30;66.70;;;;;;5052491;28;20188;-53
2023/06/25 09:44:35;;;;;;;0.00;0.00;;;17.20;66.70;;;;;;5052513;28;20283;-50
2023/06/25 09:47:09;;;;;;;0.10;0.10;;;17.20;66.60;;;;;;5052249;28;20257;-54
2023/06/25 09:49:40;;;;;;;0.00;0.00;;;17.20;66.60;;;;;;5053006;28;20273;-54
2023/06/25 09:52:14;;;;;;;0.00;0.00;;;17.20;66.60;;;;;;5051317;28;20238;-52
2023/06/25 09:54:47;;;;;;;0.10;0.10;;;17.20;66.60;;;;;;5070456;28;20195;-52
2023/06/25 09:57:23;;;;;;;0.10;0.10;;;17.20;66.70;;;;;;5066427;28;20195;-54
2023/06/25 09:59:54;;;;;;;0.10;0.10;;;17.20;66.60;;;;;;5051987;28;20281;-50
2023/06/25 10:02:25;;;;;;;0.10;0.10;;;17.20;66.60;;;;;;5051344;28;20191;-50
2023/06/25 10:04:55;;;;;;;0.10;0.10;;;17.20;66.60;;;;;;5049555;28;20203;-51
2023/06/25 10:07:26;;;;;;;0.20;0.20;;;17.20;66.60;;;;;;5051548;28;20191;-53
2023/06/25 10:09:56;;;;;;;0.10;0.10;;;17.20;66.60;;;;;;5051993;28;20288;-54
2023/06/25 10:12:33;;;;;;;0.08;0.08;;;17.20;66.60;;;;;;5051605;28;20192;-54
2023/06/25 10:15:06;;;;;;;0.10;0.10;;;17.20;66.60;;;;;;5051210;28;20210;-54
2023/06/25 10:17:38;;;;;;;0.10;0.10;;;17.20;66.60;;;;;;5051069;28;20303;-50
2023/06/25 10:20:09;;;;;;;0.10;0.10;;;17.20;66.60;;;;;;5051241;28;20211;-52
2023/06/25 10:22:42;;;;;;;0.10;0.10;;;17.20;66.60;;;;;;5052442;28;20268;-53
2023/06/25 10:25:12;;;;;;;0.10;0.10;;;17.20;66.60;;;;;;5070765;28;20427;-54
2023/06/25 10:27:45;;;;;;;0.10;0.10;;;17.20;66.60;;;;;;5052895;28;20188;-55
2023/06/25 10:30:16;;;;;;;0.10;0.10;;;17.20;66.60;;;;;;5051218;28;20842;-55
2023/06/25 10:32:47;;;;;;;0.00;0.00;;;17.20;66.60;;;;;;5050871;28;20641;-55
2023/06/25 10:35:21;;;;;;;0.03;0.03;;;17.20;66.60;;;;;;5051328;28;20223;-54
2023/06/25 10:37:52;;;;;;;0.10;0.10;;;17.20;66.60;;;;;;5051047;28;20196;-53
2023/06/25 10:40:22;;;;;;;0.10;0.10;;;17.20;66.50;;;;;;5051519;28;20215;-53
2023/06/25 10:42:55;;;;;;;0.10;0.10;;;17.20;66.60;;;;;;5051492;28;20686;-53
2023/06/25 10:45:25;;;;;;;0.03;0.03;;;17.20;66.60;;;;;;5051584;28;20645;-54
2023/06/25 10:48:05;;;;;;;0.10;0.10;;;17.20;66.50;;;;;;5050904;28;20214;-55
2023/06/25 10:50:36;;;;;;;0.10;0.10;;;17.10;66.50;;;;;;5052035;28;20678;-50
2023/06/25 10:53:12;;;;;;;0.10;0.10;;;17.10;66.50;;;;;;5055619;28;20248;-51
2023/06/25 10:55:46;;;;;;;0.10;0.10;;;17.10;66.50;;;;;;5071617;28;20225;-55
2023/06/25 10:58:20;;;;;;;0.10;0.10;;;17.10;66.50;;;;;;5031529;28;20200;-55
2023/06/25 11:00:56;;;;;;;0.10;0.10;;;17.10;66.50;;;;;;5032158;28;20215;-51
2023/06/25 11:03:27;;;;;;;0.10;0.10;;;17.10;66.50;;;;;;5051288;28;20203;-49
2023/06/25 11:06:01;;;;;;;0.00;0.00;;;17.10;66.50;;;;;;5050809;28;20195;-51
2023/06/25 11:08:32;;;;;;;0.10;0.10;;;17.10;66.50;;;;;;5051317;28;20241;-50
2023/06/25 11:11:03;;;;;;;0.10;0.10;;;17.10;66.50;;;;;;5050614;28;20277;-52
2023/06/25 11:13:35;;;;;;;0.10;0.10;;;17.10;66.50;;;;;;5051065;28;20934;-50
2023/06/25 11:16:08;;;;;;;0.00;0.00;;;17.10;66.50;;;;;;5060247;28;20698;-53
2023/06/25 11:18:38;;;;;;;0.00;0.00;;;17.10;66.50;;;;;;5053675;28;20191;-51
2023/06/25 11:21:10;;;;;;;0.13;0.13;;;17.10;66.50;;;;;;5054408;28;20211;-51
2023/06/25 11:23:44;;;;;;;0.00;0.00;;;17.10;66.50;;;;;;5064868;28;20651;-52
2023/06/25 11:26:17;;;;;;;0.10;0.10;;;17.10;66.50;;;;;;5065340;28;20656;-56
2023/06/25 11:28:49;;;;;;;0.10;0.10;;;17.10;66.50;;;;;;5055044;28;20195;-53
2023/06/25 11:31:20;;;;;;;0.10;0.10;;;17.10;66.50;;;;;;5054956;28;20212;-54
2023/06/25 11:33:57;;;;;;;0.00;0.00;;;17.10;66.50;;;;;;5054550;28;20199;-54
2023/06/25 11:36:28;;;;;;;0.10;0.10;;;17.00;66.50;;;;;;5054683;28;20226;-53
2023/06/25 11:39:01;;;;;;;0.10;0.10;;;17.10;66.50;;;;;;5055025;28;20256;-54
2023/06/25 11:41:31;;;;;;;0.10;0.10;;;17.00;66.50;;;;;;5054661;28;20273;-52
2023/06/25 11:44:03;;;;;;;0.08;0.08;;;17.10;66.50;;;;;;5054626;28;20207;-57
2023/06/25 11:46:34;;;;;;;0.20;0.20;;;17.10;66.50;;;;;;5055483;28;20207;-56
2023/06/25 11:49:11;;;;;;;0.20;0.20;;;17.10;67.30;;;;;;5055034;28;20200;-57
2023/06/25 11:51:41;;;;;;;0.08;0.08;;;17.10;66.50;;;;;;5054625;28;20192;-53
2023/06/25 11:54:12;;;;;;;0.10;0.10;;;17.10;66.50;;;;;;5068812;28;20198;-53
2023/06/25 11:56:42;;;;;;;0.10;0.10;;;17.10;66.40;;;;;;5073187;28;20226;-56
2023/06/25 11:59:15;;;;;;;0.10;0.10;;;17.10;66.40;;;;;;5054900;28;20191;-56
2023/06/25 12:01:45;;;;;;;0.10;0.10;;;17.10;66.50;;;;;;5054845;28;20195;-55
2023/06/25 12:04:17;;;;;;;0.10;0.10;;;17.10;66.50;;;;;;5054848;28;20210;-56
2023/06/25 12:06:47;;;;;;;0.10;0.10;;;17.00;66.40;;;;;;5054678;28;20241;-51
2023/06/25 12:09:18;;;;;;;0.10;0.10;;;17.10;66.50;;;;;;5054032;28;20195;-53
2023/06/25 12:11:49;;;;;;;0.17;0.17;;;17.00;66.50;;;;;;5054461;28;20195;-53
2023/06/25 12:14:22;;;;;;;0.10;0.10;;;17.00;66.40;;;;;;5054496;28;20195;-56
2023/06/25 12:16:52;;;;;;;0.10;0.10;;;17.00;66.40;;;;;;5054493;28;20227;-57
2023/06/25 12:19:23;;;;;;;0.10;0.10;;;17.00;66.40;;;;;;5054690;28;20199;-57
2023/06/25 12:21:53;;;;;;;0.10;0.10;;;17.00;66.40;;;;;;5054408;28;20200;-58
2023/06/25 12:24:24;;;;;;;0.08;0.08;;;17.00;66.50;;;;;;5070147;28;20256;-57
2023/06/25 12:26:55;;;;;;;0.10;0.10;;;17.00;66.40;;;;;;5074513;28;20199;-57
2023/06/25 12:29:27;;;;;;;0.10;0.10;;;17.00;66.40;;;;;;5068061;28;20195;-57
2023/06/25 12:31:58;;;;;;;0.20;0.20;;;17.00;66.40;;;;;;5054188;28;20243;-56
2023/06/25 12:34:29;;;;;;;0.10;0.10;;;17.00;66.40;;;;;;5054146;28;20196;-57
2023/06/25 12:36:59;;;;;;;0.20;0.20;;;17.00;66.30;;;;;;5053689;28;20304;-57
2023/06/25 12:39:30;;;;;;;0.08;0.08;;;17.00;66.40;;;;;;5053871;28;20199;-57
2023/06/25 12:42:00;;;;;;;0.10;0.10;;;17.00;66.40;;;;;;5054000;28;20282;-57
2023/06/25 12:44:32;;;;;;;0.03;0.03;;;17.00;66.30;;;;;;5054380;28;20265;-57
2023/06/25 12:47:03;;;;;;;0.00;0.00;;;17.00;66.40;;;;;;5054048;28;20256;-57
2023/06/25 12:49:34;;;;;;;0.10;0.10;;;17.00;66.40;;;;;;5054211;28;20223;-58
2023/06/25 12:52:04;;;;;;;0.10;0.10;;;17.00;66.40;;;;;;5053501;28;20195;-57
2023/06/25 12:54:35;;;;;;;0.10;0.10;;;17.00;66.40;;;;;;5070773;28;20252;-57
2023/06/25 12:57:05;;;;;;;0.10;0.10;;;16.90;66.30;;;;;;5073435;28;20230;-57
2023/06/25 12:59:38;;;;;;;0.10;0.10;;;16.90;66.30;;;;;;5073248;28;20260;-57
2023/06/25 13:02:08;;;;;;;0.10;0.10;;;17.00;66.40;;;;;;5073110;28;20256;-57
2023/06/25 13:04:39;;;;;;;0.10;0.10;;;16.90;66.30;;;;;;5073440;28;20226;-57
2023/06/25 13:07:10;;;;;;;0.10;0.10;;;16.90;66.30;;;;;;5073490;28;20248;-58
2023/06/25 13:09:40;;;;;;;0.10;0.10;;;16.90;66.30;;;;;;5073217;28;20215;-57